Time;durP1;ratioP1;P1;durP2;ratioP2;P2;SDS_P1;SDS_P2;PMS_P1;PMS_P2;Temp;Humidity;BMP_temperature;BMP_pressure;BME280_temperature;BME280_humidity;BME280_pressure;Samples;Min_cycle;Max_cycle;Signal;HPM_P1;HPM_P2
2023/07/18 00:00:14;;;;;;;13.10;5.38;;;;;;;21.19;100.00;97166.19;4939352;29;20106;-71
2023/07/18 00:02:42;;;;;;;11.00;5.38;;;;;;;21.15;100.00;97160.69;4945492;29;20323;-69
2023/07/18 00:05:11;;;;;;;14.30;4.80;;;;;;;21.05;100.00;97163.66;4939535;29;20043;-69
2023/07/18 00:07:37;;;;;;;;;;;;;;;20.91;100.00;97150.81;4945522;29;20044;-70
2023/07/18 00:10:03;;;;;;;9.43;4.65;;;;;;;20.86;100.00;97148.50;4952434;28;20008;-69
2023/07/18 00:12:49;;;;;;;10.80;4.65;;;;;;;20.90;100.00;97144.44;4948041;28;20043;-71
2023/07/18 00:15:16;;;;;;;8.52;5.18;;;;;;;21.06;100.00;97152.13;4922584;28;20062;-71
2023/07/18 00:17:42;;;;;;;8.48;4.55;;;;;;;21.14;100.00;97156.34;4944653;28;20094;-71
2023/07/18 00:20:12;;;;;;;10.95;4.88;;;;;;;20.94;100.00;97155.50;4955741;28;20573;-72
2023/07/18 00:22:40;;;;;;;9.10;5.07;;;;;;;20.92;100.00;97149.59;4946457;28;20049;-72
2023/07/18 00:25:09;;;;;;;12.77;5.45;;;;;;;20.96;100.00;97147.53;4959329;28;20042;-70
2023/07/18 00:27:36;;;;;;;9.68;4.95;;;;;;;20.74;100.00;97149.88;4975533;28;20039;-70
2023/07/18 00:30:02;;;;;;;11.90;7.15;;;;;;;20.41;100.00;97142.03;4964286;28;20533;-71
2023/07/18 00:32:28;;;;;;;10.23;5.93;;;;;;;20.28;100.00;97143.84;4959381;28;20046;-70
2023/07/18 00:34:56;;;;;;;9.55;5.07;;;;;;;20.51;100.00;97136.72;4963403;28;20054;-71
2023/07/18 00:37:22;;;;;;;11.38;4.57;;;;;;;20.70;100.00;97133.25;4963494;28;20057;-71
2023/07/18 00:39:48;;;;;;;6.05;4.28;;;;;;;20.71;100.00;97139.63;4956196;28;20047;-71
2023/07/18 00:42:13;;;;;;;11.70;5.47;;;;;;;20.70;100.00;97136.03;4959058;28;20146;-70
2023/07/18 00:44:38;;;;;;;8.55;5.28;;;;;;;20.75;100.00;97132.78;4963285;28;20080;-70
2023/07/18 00:47:05;;;;;;;9.05;5.07;;;;;;;20.75;100.00;97132.78;4959186;28;20109;-69
2023/07/18 00:49:31;;;;;;;7.07;4.38;;;;;;;20.71;100.00;97128.50;4955712;28;20049;-70
2023/07/18 00:51:57;;;;;;;11.43;5.13;;;;;;;20.71;100.00;97132.06;4927219;29;20051;-71
2023/07/18 00:54:24;;;;;;;11.20;5.15;;;;;;;20.58;100.00;97134.63;4939703;28;20043;-71
2023/07/18 00:56:49;;;;;;;10.88;5.30;;;;;;;20.45;100.00;97128.06;4943802;28;20036;-68
2023/07/18 00:59:17;;;;;;;10.20;5.35;;;;;;;20.46;100.00;97126.09;4921104;28;20110;-70
2023/07/18 01:01:43;;;;;;;8.43;5.05;;;;;;;20.48;100.00;97121.66;4944256;28;20527;-70
2023/07/18 01:04:08;;;;;;;8.57;4.88;;;;;;;20.43;100.00;97125.69;4938835;28;20043;-71
2023/07/18 01:06:36;;;;;;;9.23;5.40;;;;;;;20.25;100.00;97123.19;4928378;29;20043;-69
2023/07/18 01:09:02;;;;;;;13.98;5.05;;;;;;;20.16;100.00;97128.50;4951510;28;20071;-71
2023/07/18 01:11:27;;;;;;;10.27;5.78;;;;;;;19.06;100.00;97131.44;4962735;28;20047;-70
2023/07/18 01:13:53;;;;;;;9.80;5.57;;;;;;;19.20;100.00;97122.97;4948600;28;20050;-71
2023/07/18 01:16:18;;;;;;;11.07;6.15;;;;;;;19.44;100.00;97123.88;4944479;28;20057;-71
2023/07/18 01:18:44;;;;;;;10.70;5.53;;;;;;;19.65;100.00;97131.16;4941434;28;20460;-71
2023/07/18 01:21:17;;;;;;;10.98;4.88;;;;;;;19.80;100.00;97123.44;4923553;29;20048;-70
2023/07/18 01:23:44;;;;;;;8.63;5.50;;;;;;;19.76;100.00;97128.28;4930985;29;20138;-69
2023/07/18 01:26:09;;;;;;;11.52;5.28;;;;;;;19.85;100.00;97117.44;4926887;29;20046;-70
2023/07/18 01:28:34;;;;;;;8.15;5.75;;;;;;;19.89;100.00;97116.59;4932158;29;20055;-69
2023/07/18 01:31:00;;;;;;;11.30;5.57;;;;;;;19.98;100.00;97111.31;4932014;29;20051;-70
2023/07/18 01:33:27;;;;;;;9.73;5.13;;;;;;;20.12;100.00;97116.66;4926019;29;20197;-70
2023/07/18 01:35:52;;;;;;;10.95;4.97;;;;;;;20.19;100.00;97099.09;4913906;29;20043;-70
2023/07/18 01:38:17;;;;;;;12.95;5.68;;;;;;;20.19;100.00;97101.88;4935005;28;20413;-70
2023/07/18 01:40:43;;;;;;;9.60;5.53;;;;;;;20.03;100.00;97097.72;4960947;28;20141;-70
2023/07/18 01:43:09;;;;;;;9.55;5.82;;;;;;;19.82;100.00;97098.03;4946433;28;20046;-71
2023/07/18 01:45:34;;;;;;;12.85;6.05;;;;;;;19.72;100.00;97090.59;4968415;28;20097;-70
2023/07/18 01:48:02;;;;;;;11.95;5.70;;;;;;;19.40;100.00;97089.03;4951609;28;20082;-70
2023/07/18 01:50:27;;;;;;;12.43;5.53;;;;;;;19.48;100.00;97094.06;4951046;28;20086;-71
2023/07/18 01:52:53;;;;;;;16.00;5.25;;;;;;;19.73;100.00;97098.53;4949711;28;20070;-71
2023/07/18 01:55:19;;;;;;;10.23;5.65;;;;;;;19.83;100.00;97096.81;4945638;29;20456;-70
2023/07/18 01:57:49;;;;;;;11.77;5.63;;;;;;;19.99;100.00;97099.00;4950368;29;20035;-69
2023/07/18 02:00:21;;;;;;;;;;;;;;;20.06;99.72;97098.88;4943879;29;20057;-69
2023/07/18 02:02:51;;;;;;;11.75;5.20;;;;;;;19.88;84.06;97109.44;4951109;28;19915;-70
2023/07/18 02:05:20;;;;;;;;;;;;;;;19.79;82.92;97105.22;4945291;29;20043;-70
2023/07/18 02:07:47;;;;;;;9.85;4.63;;;;;;;19.75;81.15;97109.22;4949368;29;19937;-71
2023/07/18 02:10:15;;;;;;;8.95;5.15;;;;;;;19.65;80.29;97099.81;4938945;28;20055;-71
2023/07/18 02:12:40;;;;;;;10.60;4.38;;;;;;;19.72;75.80;97096.94;4953129;28;20043;-71
2023/07/18 02:15:06;;;;;;;8.32;4.15;;;;;;;19.74;75.54;97091.78;4927144;28;20447;-71
2023/07/18 02:17:33;;;;;;;7.90;3.88;;;;;;;19.72;75.29;97088.59;4948999;28;20045;-69
2023/07/18 02:19:58;;;;;;;8.30;4.40;;;;;;;19.72;74.64;97099.72;4962836;28;20046;-71
2023/07/18 02:22:25;;;;;;;10.32;4.32;;;;;;;19.62;73.32;97097.88;4961107;28;20859;-70
2023/07/18 02:24:50;;;;;;;10.32;4.10;;;;;;;19.53;72.92;97094.81;4948556;28;20105;-71
2023/07/18 02:27:16;;;;;;;11.43;3.88;;;;;;;19.52;70.85;97099.59;4943544;28;20046;-71
2023/07/18 02:29:41;;;;;;;8.85;3.65;;;;;;;19.49;71.32;97101.19;4965072;28;20042;-70
2023/07/18 02:32:07;;;;;;;13.25;4.00;;;;;;;19.52;70.16;97101.56;4943246;28;20073;-70
2023/07/18 02:34:33;;;;;;;9.30;3.58;;;;;;;19.51;68.85;97103.56;4963601;28;20471;-71
2023/07/18 02:36:58;;;;;;;10.80;3.90;;;;;;;19.58;67.35;97109.03;4965536;28;20047;-71
2023/07/18 02:39:23;;;;;;;10.10;3.53;;;;;;;19.63;67.07;97102.22;4965361;28;20245;-71
2023/07/18 02:41:49;;;;;;;7.32;3.35;;;;;;;19.53;66.29;97100.38;4960476;28;20399;-71
2023/07/18 02:44:14;;;;;;;9.63;3.60;;;;;;;19.44;67.00;97104.44;4982213;28;20042;-71
2023/07/18 02:46:39;;;;;;;8.95;3.88;;;;;;;19.38;66.03;97092.22;5003085;28;20051;-72
2023/07/18 02:49:05;;;;;;;10.15;3.13;;;;;;;19.38;65.00;97097.78;4981887;28;20039;-71
2023/07/18 02:51:30;;;;;;;7.75;2.92;;;;;;;19.38;64.89;97092.22;4947875;28;20042;-70
2023/07/18 02:53:56;;;;;;;12.27;3.42;;;;;;;19.33;65.14;97098.22;4964759;28;20039;-70
2023/07/18 02:56:21;;;;;;;6.40;3.40;;;;;;;19.26;65.18;97096.31;4942380;28;21087;-70
2023/07/18 02:58:49;;;;;;;7.85;3.72;;;;;;;19.18;66.19;97091.28;4947415;28;20101;-70
2023/07/18 03:01:14;;;;;;;6.90;3.60;;;;;;;19.18;66.18;97096.84;4959973;28;20050;-72
2023/07/18 03:03:40;;;;;;;8.27;3.50;;;;;;;19.08;67.03;97085.41;4964706;28;20574;-71
2023/07/18 03:06:07;;;;;;;8.85;3.75;;;;;;;19.06;67.25;97079.47;4960320;28;20085;-70
2023/07/18 03:08:33;;;;;;;8.13;3.58;;;;;;;19.09;67.17;97087.00;4963404;28;20054;-70
2023/07/18 03:11:01;;;;;;;12.48;3.85;;;;;;;19.10;67.16;97090.56;4981947;28;20034;-71
2023/07/18 03:13:27;;;;;;;9.27;3.45;;;;;;;19.04;67.57;97075.56;4942431;28;20046;-70
2023/07/18 03:15:53;;;;;;;7.47;3.40;;;;;;;18.98;67.13;97077.19;4965254;28;20456;-68
2023/07/18 03:18:18;;;;;;;7.82;3.10;;;;;;;19.05;66.22;97077.94;4943537;28;20181;-68
2023/07/18 03:20:44;;;;;;;7.38;3.42;;;;;;;19.06;66.06;97078.72;4947124;28;20053;-71
2023/07/18 03:23:09;;;;;;;7.57;3.17;;;;;;;19.00;66.00;97074.81;4959137;28;20164;-72
2023/07/18 03:25:35;;;;;;;8.15;3.90;;;;;;;19.02;65.84;97083.53;4965095;28;20050;-72
2023/07/18 03:28:00;;;;;;;11.07;3.53;;;;;;;19.05;65.59;97074.34;4948293;28;20046;-71
2023/07/18 03:30:26;;;;;;;13.80;3.30;;;;;;;18.94;66.97;97080.00;4941952;28;20042;-70
2023/07/18 03:32:51;;;;;;;5.80;3.33;;;;;;;18.91;67.66;97073.31;4965778;28;20145;-70
2023/07/18 03:35:17;;;;;;;8.00;3.50;;;;;;;18.91;67.42;97076.09;4960732;28;20051;-69
2023/07/18 03:37:43;;;;;;;8.43;3.80;;;;;;;18.94;68.07;97076.47;5001370;23;20059;-66
2023/07/18 03:40:10;;;;;;;8.18;3.33;;;;;;;19.02;67.12;97078.75;4976497;28;20053;-66
2023/07/18 03:42:36;;;;;;;8.77;4.10;;;;;;;19.00;67.44;97075.59;4983857;28;20526;-66
2023/07/18 03:45:02;;;;;;;10.57;3.63;;;;;;;19.03;66.65;97069.22;4983886;28;20505;-67
2023/07/18 03:47:28;;;;;;;7.25;3.40;;;;;;;19.03;66.86;97072.00;4979869;28;20050;-66
2023/07/18 03:49:53;;;;;;;8.63;3.53;;;;;;;19.02;64.97;97070.41;4984169;28;20043;-65
2023/07/18 03:52:19;;;;;;;5.78;2.72;;;;;;;19.10;64.26;97066.38;4978014;28;20431;-66
2023/07/18 03:54:45;;;;;;;4.93;3.10;;;;;;;19.09;63.48;97064.00;4984022;28;20038;-66
2023/07/18 03:57:11;;;;;;;8.07;2.90;;;;;;;19.09;63.45;97064.00;4976659;28;20042;-66
2023/07/18 03:59:36;;;;;;;6.90;2.85;;;;;;;19.06;63.08;97064.81;4983772;28;20050;-66
2023/07/18 04:02:02;;;;;;;6.97;3.30;;;;;;;19.05;62.80;97064.03;4998542;28;20049;-63
2023/07/18 04:04:29;;;;;;;6.28;2.80;;;;;;;19.08;62.62;97067.97;4978951;28;20115;-66
2023/07/18 04:06:55;;;;;;;6.63;2.92;;;;;;;19.10;62.58;97062.78;4985097;28;20069;-64
2023/07/18 04:09:21;;;;;;;7.82;3.22;;;;;;;19.09;62.67;97058.47;4980822;28;20106;-65
2023/07/18 04:11:46;;;;;;;8.48;3.10;;;;;;;19.06;62.91;97060.06;4999288;28;20105;-65
2023/07/18 04:14:13;;;;;;;9.10;3.10;;;;;;;19.08;62.85;97057.66;4975589;28;20045;-64
2023/07/18 04:16:38;;;;;;;8.20;3.30;;;;;;;19.13;62.63;97064.75;4984062;28;20040;-66
2023/07/18 04:19:05;;;;;;;7.13;3.00;;;;;;;19.28;62.41;97054.25;4980272;28;20042;-66
2023/07/18 04:21:30;;;;;;;5.78;3.05;;;;;;;19.22;62.95;97053.91;4982344;28;20068;-67
2023/07/18 04:23:56;;;;;;;13.80;3.60;;;;;;;19.18;63.44;97053.19;4983298;28;20046;-68
2023/07/18 04:26:21;;;;;;;7.53;3.15;;;;;;;19.26;62.63;97057.44;4979518;28;20050;-67
2023/07/18 04:28:48;;;;;;;8.68;3.03;;;;;;;19.36;62.67;97057.75;4983874;28;20039;-68
2023/07/18 04:31:13;;;;;;;7.40;2.97;;;;;;;19.48;61.61;97071.84;4988807;28;20046;-66
2023/07/18 04:33:39;;;;;;;7.80;3.13;;;;;;;19.60;60.85;97064.16;5003363;28;20203;-66
2023/07/18 04:36:06;;;;;;;9.80;2.92;;;;;;;19.70;60.58;97060.47;4998850;28;20122;-65
2023/07/18 04:38:33;;;;;;;8.35;3.00;;;;;;;19.54;60.78;97060.28;5001292;28;20050;-69
2023/07/18 04:40:58;;;;;;;7.53;2.75;;;;;;;19.44;61.21;97071.09;5000036;28;20045;-68
2023/07/18 04:43:24;;;;;;;8.07;3.63;;;;;;;19.49;59.92;97067.84;4995516;28;20408;-67
2023/07/18 04:45:50;;;;;;;8.40;3.33;;;;;;;19.55;59.05;97054.28;5002627;28;20038;-67
2023/07/18 04:48:18;;;;;;;6.53;2.65;;;;;;;19.66;60.10;97048.59;4996038;28;20046;-67
2023/07/18 04:50:51;;;;;;;10.68;2.90;;;;;;;19.94;59.52;97055.75;5001405;28;20038;-68
2023/07/18 04:53:16;;;;;;;8.50;3.47;;;;;;;19.73;60.06;97054.06;4997124;28;20054;-68
2023/07/18 04:55:44;;;;;;;8.40;3.28;;;;;;;19.84;60.24;97056.69;5001234;28;20050;-68
2023/07/18 04:58:10;;;;;;;6.53;3.13;;;;;;;19.70;59.74;97057.69;4996375;28;20046;-68
2023/07/18 05:00:35;;;;;;;7.57;3.03;;;;;;;19.91;59.40;97064.16;4987340;28;20490;-68
2023/07/18 05:03:01;;;;;;;7.32;3.00;;;;;;;20.07;58.99;97058.72;4983553;28;20054;-68
2023/07/18 05:05:27;;;;;;;8.73;2.97;;;;;;;20.39;58.17;97052.66;4978920;28;20065;-67
2023/07/18 05:08:00;;;;;;;7.85;3.53;;;;;;;21.17;56.44;97051.66;4981336;28;20038;-68
2023/07/18 05:10:26;;;;;;;9.52;3.20;;;;;;;21.66;54.61;97051.84;4976958;28;20506;-69
2023/07/18 05:12:52;;;;;;;5.93;2.92;;;;;;;21.24;55.76;97037.56;4983315;28;20046;-68
2023/07/18 05:15:18;;;;;;;5.57;2.70;;;;;;;21.21;56.04;97035.66;4991581;28;20077;-68
2023/07/18 05:17:44;;;;;;;5.35;3.25;;;;;;;20.48;57.58;97031.84;4991683;28;20395;-68
2023/07/18 05:20:10;;;;;;;4.40;2.78;;;;;;;20.30;59.59;97032.16;4979160;28;20042;-67
2023/07/18 05:22:40;;;;;;;9.75;3.20;;;;;;;19.95;61.00;97032.31;4984621;28;20402;-69
2023/07/18 05:25:12;;;;;;;8.20;3.17;;;;;;;20.10;61.25;97030.09;4978565;28;20053;-67
2023/07/18 05:27:39;;;;;;;7.47;3.20;;;;;;;19.85;61.91;97033.25;4982616;28;20056;-68
2023/07/18 05:30:05;;;;;;;6.57;2.90;;;;;;;19.80;62.74;97033.72;4977072;28;20123;-68
2023/07/18 05:32:31;;;;;;;9.57;3.13;;;;;;;20.23;61.75;97028.28;4981896;28;20049;-70
2023/07/18 05:34:59;;;;;;;8.10;3.17;;;;;;;20.88;59.68;97035.50;4982500;28;20034;-68
2023/07/18 05:37:25;;;;;;;6.72;3.67;;;;;;;20.21;61.59;97027.13;4976182;28;20903;-68
2023/07/18 05:39:51;;;;;;;8.70;2.90;;;;;;;20.23;61.70;97021.94;4972619;28;20072;-68
2023/07/18 05:42:17;;;;;;;9.35;3.53;;;;;;;20.00;62.98;97017.16;4990836;28;20035;-69
2023/07/18 05:44:42;;;;;;;9.52;4.38;;;;;;;19.80;63.96;97014.28;4982118;28;20137;-68
2023/07/18 05:47:07;;;;;;;11.25;3.42;;;;;;;20.05;64.19;97009.09;4976059;28;20188;-68
2023/07/18 05:49:33;;;;;;;6.88;2.92;;;;;;;20.79;60.91;97011.00;4969575;28;20042;-68
2023/07/18 05:51:59;;;;;;;9.55;3.10;;;;;;;20.36;61.48;97017.31;4982682;28;20130;-68
2023/07/18 05:54:24;;;;;;;8.43;3.40;;;;;;;20.22;63.32;97007.25;4987523;28;20667;-68
2023/07/18 05:56:49;;;;;;;5.38;2.80;;;;;;;20.31;62.04;97003.94;4989340;28;20045;-67
2023/07/18 05:59:15;;;;;;;4.45;2.70;;;;;;;20.90;61.08;97007.25;4980926;28;20057;-67
2023/07/18 06:01:40;;;;;;;10.73;3.47;;;;;;;21.25;59.50;97002.94;4987091;28;20455;-66
2023/07/18 06:04:05;;;;;;;7.47;2.72;;;;;;;21.98;57.59;97016.84;4980765;28;20069;-67
2023/07/18 06:06:31;;;;;;;6.07;2.60;;;;;;;21.79;57.46;97014.91;4985920;28;20070;-68
2023/07/18 06:08:57;;;;;;;6.80;2.83;;;;;;;21.66;56.83;97014.81;4985661;28;20038;-67
2023/07/18 06:11:22;;;;;;;7.75;2.90;;;;;;;22.48;54.71;97012.84;4995206;28;20073;-68
2023/07/18 06:13:49;;;;;;;9.35;3.40;;;;;;;21.62;57.63;97014.13;4985374;28;20042;-67
2023/07/18 06:16:14;;;;;;;5.68;2.92;;;;;;;22.51;55.93;97019.59;4980658;28;20521;-67
2023/07/18 06:18:41;;;;;;;6.97;3.10;;;;;;;22.42;55.26;97013.81;4985483;28;20046;-67
2023/07/18 06:21:07;;;;;;;7.30;3.30;;;;;;;21.87;57.57;97013.56;4983281;28;20128;-67
2023/07/18 06:23:32;;;;;;;10.60;3.35;;;;;;;21.68;58.25;97018.75;4985355;28;20479;-67
2023/07/18 06:25:58;;;;;;;7.88;2.97;;;;;;;21.86;57.95;97018.34;4980300;28;20050;-67
2023/07/18 06:28:24;;;;;;;9.20;3.17;;;;;;;21.91;59.03;97022.59;4981690;28;20604;-67
2023/07/18 06:30:56;;;;;;;10.82;2.72;;;;;;;21.68;59.01;97020.75;4985752;28;20040;-67
2023/07/18 06:33:23;;;;;;;7.13;3.72;;;;;;;22.12;58.02;97018.53;4979595;28;20603;-68
2023/07/18 06:35:56;;;;;;;7.45;3.40;;;;;;;22.68;56.12;97018.31;4984621;28;20097;-66
2023/07/18 06:38:21;;;;;;;7.72;3.42;;;;;;;23.34;53.41;97017.34;4979808;28;21201;-67
2023/07/18 06:40:48;;;;;;;5.82;3.58;;;;;;;22.53;55.55;97012.31;4977016;28;20133;-68
2023/07/18 06:43:14;;;;;;;8.50;3.63;;;;;;;22.37;56.87;97011.56;4980188;28;20133;-66
2023/07/18 06:45:43;;;;;;;8.68;3.70;;;;;;;22.32;56.41;97010.88;4985259;28;20209;-67
2023/07/18 06:48:09;;;;;;;9.80;3.95;;;;;;;23.60;54.38;97013.31;4981498;28;20478;-67
2023/07/18 06:50:36;;;;;;;9.20;3.55;;;;;;;23.90;52.47;97010.47;4971579;28;20137;-66
2023/07/18 06:53:01;;;;;;;11.45;4.13;;;;;;;23.51;54.85;97004.03;4979506;28;20043;-66
2023/07/18 06:55:27;;;;;;;10.73;3.53;;;;;;;23.54;55.01;97008.75;4986612;28;20050;-65
2023/07/18 06:57:52;;;;;;;8.55;3.63;;;;;;;24.31;53.86;97005.91;4988155;28;20053;-66
2023/07/18 07:00:19;;;;;;;13.70;3.92;;;;;;;23.54;55.61;97005.97;4979983;28;20046;-65
2023/07/18 07:02:45;;;;;;;12.13;3.67;;;;;;;23.55;56.24;96997.13;4983615;28;20512;-64
2023/07/18 07:05:10;;;;;;;10.07;3.78;;;;;;;23.80;56.33;96990.75;4977563;28;20050;-65
2023/07/18 07:07:36;;;;;;;8.02;3.83;;;;;;;25.02;52.36;96999.88;4985096;28;20089;-65
2023/07/18 07:10:01;;;;;;;10.85;3.95;;;;;;;24.25;54.55;96988.91;4984214;28;20616;-65
2023/07/18 07:12:27;;;;;;;9.70;4.38;;;;;;;25.02;54.01;96991.47;4979726;28;20042;-65
2023/07/18 07:14:52;;;;;;;6.72;3.42;;;;;;;25.99;52.31;96995.47;4984258;28;20062;-67
2023/07/18 07:17:18;;;;;;;10.43;4.13;;;;;;;25.45;51.04;96994.72;4979269;28;20129;-65
2023/07/18 07:19:44;;;;;;;13.48;3.85;;;;;;;25.82;50.51;96983.66;4984168;28;20076;-68
2023/07/18 07:22:11;;;;;;;13.05;4.85;;;;;;;25.71;51.91;96984.88;4980185;28;20145;-68
2023/07/18 07:24:37;;;;;;;8.85;5.10;;;;;;;24.85;55.26;96978.88;4984778;28;20043;-68
2023/07/18 07:27:05;;;;;;;8.85;4.35;;;;;;;25.02;54.17;96973.88;4982368;28;20442;-68
2023/07/18 07:29:30;;;;;;;8.70;4.32;;;;;;;25.21;53.14;96974.78;4982939;28;20046;-67
2023/07/18 07:31:56;;;;;;;11.35;5.10;;;;;;;25.63;53.58;96963.19;4984040;28;20042;-67
2023/07/18 07:34:21;;;;;;;8.00;4.03;;;;;;;25.79;51.51;96970.56;4978927;28;20699;-65
2023/07/18 07:36:46;;;;;;;11.18;4.50;;;;;;;26.31;50.10;96966.06;4985109;28;20065;-68
2023/07/18 07:39:13;;;;;;;10.82;4.13;;;;;;;26.46;48.88;96967.00;4980685;28;20615;-66
2023/07/18 07:41:38;;;;;;;6.75;3.63;;;;;;;26.68;48.35;96952.03;4959868;28;20035;-66
2023/07/18 07:44:04;;;;;;;12.00;4.40;;;;;;;25.47;52.50;96944.56;4961462;28;20566;-69
2023/07/18 07:46:29;;;;;;;8.50;4.15;;;;;;;25.79;51.58;96940.50;4963215;28;20090;-66
2023/07/18 07:48:55;;;;;;;9.13;4.15;;;;;;;26.71;51.16;96951.13;4961217;28;20054;-66
2023/07/18 07:51:22;;;;;;;12.93;4.15;;;;;;;27.58;48.55;96947.97;4940065;28;20448;-66
2023/07/18 07:53:47;;;;;;;9.43;4.60;;;;;;;28.12;45.57;96940.53;4944069;28;20749;-66
2023/07/18 07:56:13;;;;;;;9.50;5.00;;;;;;;26.46;49.55;96938.13;4938997;28;20130;-66
2023/07/18 07:58:38;;;;;;;8.88;4.82;;;;;;;25.16;53.99;96931.31;4945200;28;20388;-68
2023/07/18 08:01:03;;;;;;;9.98;4.35;;;;;;;26.42;50.80;96929.09;4942681;28;20091;-71
2023/07/18 08:03:29;;;;;;;8.70;4.47;;;;;;;26.46;51.17;96926.91;4943681;28;20047;-65
2023/07/18 08:05:54;;;;;;;9.68;4.90;;;;;;;26.01;51.05;96925.63;4945605;28;20054;-66
2023/07/18 08:08:20;;;;;;;8.10;4.78;;;;;;;26.94;50.13;96915.16;4923579;28;20489;-65
2023/07/18 08:10:45;;;;;;;9.90;4.68;;;;;;;27.99;47.71;96921.06;4945385;28;20074;-66
2023/07/18 08:13:11;;;;;;;7.55;4.22;;;;;;;29.69;42.98;96925.00;4978221;28;20149;-66
2023/07/18 08:15:36;;;;;;;8.88;4.78;;;;;;;27.41;47.42;96917.41;4984769;28;20082;-69
2023/07/18 08:18:02;;;;;;;12.18;4.50;;;;;;;28.69;45.92;96919.19;4983517;28;20402;-70
2023/07/18 08:20:27;;;;;;;10.23;5.65;;;;;;;28.15;46.44;96913.47;4963510;28;20070;-65
2023/07/18 08:22:54;;;;;;;8.05;4.28;;;;;;;27.72;48.87;96912.75;4983286;28;20046;-66
2023/07/18 08:25:19;;;;;;;7.82;4.55;;;;;;;27.59;47.82;96905.31;4978568;28;20045;-66
2023/07/18 08:27:45;;;;;;;8.55;5.00;;;;;;;25.86;52.13;96909.34;4966766;28;20390;-68
2023/07/18 08:30:11;;;;;;;8.57;4.63;;;;;;;27.98;48.19;96907.47;4977900;28;20073;-67
2023/07/18 08:32:37;;;;;;;10.48;4.22;;;;;;;29.68;43.99;96920.63;4982769;28;20586;-67
2023/07/18 08:35:04;;;;;;;8.80;4.70;;;;;;;26.88;49.25;96913.03;4979766;28;20555;-70
2023/07/18 08:37:29;;;;;;;9.27;4.47;;;;;;;27.55;48.12;96917.97;4980935;28;20487;-69
2023/07/18 08:39:54;;;;;;;10.90;5.55;;;;;;;26.07;51.48;96909.72;4982776;28;20050;-67
2023/07/18 08:42:24;;;;;;;10.48;4.47;;;;;;;28.52;47.37;96908.34;4964417;28;20487;-67
2023/07/18 08:44:53;;;;;;;7.70;4.43;;;;;;;30.19;43.17;96909.28;4963764;28;20034;-67
2023/07/18 08:47:21;;;;;;;9.35;4.50;;;;;;;30.56;41.71;96903.84;4958279;28;20074;-67
2023/07/18 08:49:46;;;;;;;8.13;4.03;;;;;;;31.92;38.94;96908.66;4964224;28;20074;-67
2023/07/18 08:52:12;;;;;;;7.38;4.25;;;;;;;32.17;37.73;96917.56;4957731;28;20129;-68
2023/07/18 08:54:37;;;;;;;9.23;4.95;;;;;;;31.14;39.12;96908.84;4946360;28;20038;-68
2023/07/18 08:57:03;;;;;;;12.25;5.40;;;;;;;29.78;41.69;96904.38;4961155;28;20043;-70
2023/07/18 08:59:29;;;;;;;9.20;4.53;;;;;;;30.61;40.64;96894.66;4961511;28;20047;-68
2023/07/18 09:01:55;;;;;;;9.15;4.53;;;;;;;31.25;40.62;96887.06;4961970;28;20061;-66
2023/07/18 09:04:22;;;;;;;10.45;5.07;;;;;;;31.16;39.70;96884.41;4957876;28;20039;-67
2023/07/18 09:06:48;;;;;;;9.52;4.28;;;;;;;29.39;43.27;96881.16;4962621;28;20039;-68
2023/07/18 09:09:20;;;;;;;10.40;4.82;;;;;;;27.65;46.25;96885.75;4958381;28;20089;-68
2023/07/18 09:12:01;;;;;;;15.10;9.40;;;;;;;27.95;45.42;96883.88;4968892;28;20492;-68
2023/07/18 09:14:32;;;;;;;11.00;4.30;;;;;;;29.62;43.66;96890.75;4958989;28;20046;-68
2023/07/18 09:17:03;;;;;;;10.15;4.80;;;;;;;30.35;41.75;96900.25;4943760;28;20039;-67
2023/07/18 09:19:37;;;;;;;8.80;4.97;;;;;;;30.67;41.06;96903.97;4941997;28;20096;-68
2023/07/18 09:22:07;;;;;;;11.40;4.60;;;;;;;30.14;41.61;96896.63;4940962;28;20043;-70
2023/07/18 09:24:35;;;;;;;6.97;3.92;;;;;;;29.95;43.11;96898.19;4943366;28;20399;-68
2023/07/18 09:27:02;;;;;;;8.20;4.88;;;;;;;28.84;44.98;96888.97;4925125;28;20043;-68
2023/07/18 09:29:28;;;;;;;12.88;5.30;;;;;;;28.80;44.90;96891.19;4944563;28;20039;-68
2023/07/18 09:31:54;;;;;;;8.30;4.57;;;;;;;29.39;43.93;96890.44;4946959;28;20043;-68
2023/07/18 09:34:19;;;;;;;8.77;5.10;;;;;;;28.67;45.54;96882.25;4941884;28;20042;-68
2023/07/18 09:37:03;;;;;;;10.85;4.63;;;;;;;29.98;43.21;96886.69;4937283;28;20078;-69
2023/07/18 09:39:29;;;;;;;11.55;4.90;;;;;;;31.16;40.60;96877.97;4946451;28;20101;-67
2023/07/18 09:41:55;;;;;;;10.30;4.70;;;;;;;31.87;38.58;96874.63;4974937;28;20042;-68
2023/07/18 09:44:24;;;;;;;9.32;4.78;;;;;;;31.78;39.26;96869.94;4980143;28;20133;-67
2023/07/18 09:46:50;;;;;;;12.65;4.97;;;;;;;32.45;40.73;96863.03;4985321;28;20049;-68
2023/07/18 09:49:19;;;;;;;10.75;5.50;;;;;;;32.34;41.06;96852.44;4975358;28;20058;-66
2023/07/18 09:51:52;;;;;;;12.32;5.10;;;;;;;31.81;41.64;96849.13;4965297;28;20185;-69
2023/07/18 09:54:20;;;;;;;14.00;4.68;;;;;;;31.82;41.78;96851.44;4961570;28;20078;-68
2023/07/18 09:56:48;;;;;;;10.32;4.90;;;;;;;31.42;41.99;96838.28;4965711;28;20141;-67
2023/07/18 09:59:13;;;;;;;11.35;4.60;;;;;;;32.14;41.64;96842.06;4976243;28;20138;-68
2023/07/18 10:01:38;;;;;;;10.05;4.50;;;;;;;32.48;40.47;96831.63;4966533;28;20129;-65
2023/07/18 10:04:04;;;;;;;9.00;5.03;;;;;;;32.48;39.96;96825.19;4961617;28;20137;-68
2023/07/18 10:06:32;;;;;;;9.73;5.15;;;;;;;32.46;39.64;96833.44;4966752;28;20051;-66
2023/07/18 10:08:59;;;;;;;20.13;5.60;;;;;;;32.11;42.00;96848.78;4973758;28;20300;-68
2023/07/18 10:11:24;;;;;;;15.48;5.05;;;;;;;31.59;43.33;96873.19;4966655;28;20120;-68
2023/07/18 10:13:55;;;;;;;11.50;5.68;;;;;;;31.41;43.44;96887.69;4984801;28;20077;-67
2023/07/18 10:16:23;;;;;;;13.23;5.65;;;;;;;31.48;43.82;96884.44;4980323;28;20850;-67
2023/07/18 10:18:51;;;;;;;11.38;4.97;;;;;;;31.50;43.41;96904.53;4984374;28;20038;-67
2023/07/18 10:21:30;;;;;;;7.13;4.50;;;;;;;31.97;42.20;96929.78;4980604;28;20038;-65
2023/07/18 10:23:56;;;;;;;9.73;5.07;;;;;;;31.92;42.84;96953.19;4984650;28;20133;-65
2023/07/18 10:26:32;;;;;;;10.25;4.82;;;;;;;31.39;42.79;96973.09;4980226;28;20599;-67
2023/07/18 10:29:03;;;;;;;11.68;4.20;;;;;;;31.82;42.59;96966.78;4985916;28;20034;-66
2023/07/18 10:31:36;;;;;;;9.30;4.22;;;;;;;31.67;43.13;96935.75;4982352;28;20418;-69
2023/07/18 10:34:13;;;;;;;7.97;4.68;;;;;;;32.09;42.00;96910.81;4984056;28;20042;-70
2023/07/18 10:36:39;;;;;;;9.38;4.00;;;;;;;32.68;41.57;96886.59;4982191;28;20046;-68
2023/07/18 10:39:12;;;;;;;7.70;3.83;;;;;;;32.69;40.71;96860.56;4978457;28;20109;-72
2023/07/18 10:41:43;;;;;;;8.38;4.35;;;;;;;31.94;42.42;96840.16;4985370;28;20422;-66
2023/07/18 10:44:14;;;;;;;6.25;4.20;;;;;;;32.27;40.92;96814.06;4979893;28;20043;-67
2023/07/18 10:46:40;;;;;;;13.10;5.35;;;;;;;32.09;41.62;96786.97;4984228;28;20141;-68
2023/07/18 10:49:07;;;;;;;9.80;4.57;;;;;;;31.17;42.39;96774.84;4976902;28;20042;-68
2023/07/18 10:51:33;;;;;;;8.07;4.28;;;;;;;31.59;42.90;96773.34;4979743;28;20065;-67
2023/07/18 10:54:02;;;;;;;9.80;4.50;;;;;;;30.44;46.00;96778.59;4983608;28;20042;-68
2023/07/18 10:56:28;;;;;;;7.18;4.10;;;;;;;30.57;46.14;96775.38;4980493;28;20063;-69
2023/07/18 10:58:57;;;;;;;8.63;4.35;;;;;;;30.34;45.96;96767.97;4985256;28;20377;-68
2023/07/18 11:01:27;;;;;;;9.75;4.93;;;;;;;29.73;47.05;96773.16;4979547;28;20050;-67
2023/07/18 11:03:52;;;;;;;8.95;4.60;;;;;;;29.26;49.12;96779.94;4984268;28;20065;-67
2023/07/18 11:06:21;;;;;;;8.75;4.85;;;;;;;28.61;48.92;96780.69;4979828;28;20495;-67
2023/07/18 11:08:46;;;;;;;11.30;5.53;;;;;;;28.34;48.92;96790.97;4983063;28;20049;-68
2023/07/18 11:11:14;;;;;;;7.60;4.82;;;;;;;28.37;50.11;96811.75;4979044;28;20066;-68
2023/07/18 11:13:43;;;;;;;9.63;4.18;;;;;;;28.43;50.70;96818.25;4982517;28;20053;-67
2023/07/18 11:16:14;;;;;;;8.27;4.55;;;;;;;28.53;49.34;96852.75;4980025;28;20096;-68
2023/07/18 11:18:49;;;;;;;10.48;4.50;;;;;;;28.51;50.48;96915.22;4984401;28;20372;-66
2023/07/18 11:21:17;;;;;;;8.98;5.15;;;;;;;28.21;51.90;97004.47;4980425;28;20042;-67
2023/07/18 11:23:44;;;;;;;7.27;4.63;;;;;;;27.77;54.02;97073.28;4984326;28;20045;-67
2023/07/18 11:26:17;;;;;;;11.02;4.65;;;;;;;27.38;55.24;97075.84;4977273;28;20110;-66